createdAt,value
2022-12-11T00:01:25.191Z,44.41
2022-12-11T00:03:51.564Z,43.39
2022-12-11T00:06:17.948Z,42.72
2022-12-11T00:08:44.331Z,43.76
2022-12-11T00:11:10.682Z,43.98
2022-12-11T00:13:37.015Z,44.23
2022-12-11T00:16:03.341Z,44.75
2022-12-11T00:18:29.688Z,45.31
2022-12-11T00:20:56.031Z,45.35
2022-12-11T00:23:22.421Z,44.74
2022-12-11T00:25:48.808Z,44.39
2022-12-11T00:28:15.207Z,44.95
2022-12-11T00:30:41.576Z,45.13
2022-12-11T00:33:07.967Z,45.18
2022-12-11T00:35:34.320Z,44.94
2022-12-11T00:38:00.654Z,44.33
2022-12-11T00:40:26.994Z,43.74
2022-12-11T00:42:53.415Z,43.61
2022-12-11T00:45:19.847Z,43.05
2022-12-11T00:47:46.261Z,43.31
2022-12-11T00:50:12.665Z,42.67
2022-12-11T00:52:39.016Z,44.09
2022-12-11T00:55:05.401Z,44.34
2022-12-11T00:57:31.802Z,46.63
2022-12-11T00:59:58.172Z,46.43
2022-12-11T01:02:24.587Z,46.35
2022-12-11T01:04:50.990Z,46.69
2022-12-11T01:07:17.389Z,45.87
2022-12-11T01:09:43.751Z,45.97
2022-12-11T01:12:10.095Z,45.71
2022-12-11T01:14:36.468Z,45.52
2022-12-11T01:17:02.916Z,45.67
2022-12-11T01:19:29.336Z,45.62
2022-12-11T01:21:55.724Z,46.45
2022-12-11T01:24:22.119Z,46.17
2022-12-11T01:26:48.502Z,46.28
2022-12-11T01:29:14.843Z,46.43
2022-12-11T01:31:41.191Z,46.06
2022-12-11T01:34:07.540Z,46.48
2022-12-11T01:36:33.886Z,46.84
2022-12-11T01:39:00.276Z,47.00
2022-12-11T01:41:26.622Z,46.57
2022-12-11T01:43:52.998Z,47.56
2022-12-11T01:46:19.422Z,46.82
2022-12-11T01:48:45.853Z,46.81
2022-12-11T01:51:12.272Z,47.13
2022-12-11T01:53:38.652Z,47.90
2022-12-11T01:56:04.994Z,47.47
2022-12-11T01:58:31.339Z,48.64
2022-12-11T02:00:57.733Z,49.66
2022-12-11T02:03:24.127Z,48.24
2022-12-11T02:05:50.499Z,48.52
2022-12-11T02:08:16.883Z,48.92
2022-12-11T02:10:43.295Z,50.03
2022-12-11T02:13:09.632Z,48.99
2022-12-11T02:15:36.006Z,49.31
2022-12-11T02:18:02.349Z,49.32
2022-12-11T02:20:28.726Z,48.65
2022-12-11T02:22:55.061Z,49.28
2022-12-11T02:25:21.481Z,48.97
2022-12-11T02:27:47.852Z,47.95
2022-12-11T02:30:14.229Z,47.77
2022-12-11T02:32:40.562Z,48.52
2022-12-11T02:35:06.954Z,47.65
2022-12-11T02:37:33.283Z,47.80
2022-12-11T02:39:59.621Z,47.92
2022-12-11T02:42:26.017Z,48.72
2022-12-11T02:44:52.403Z,48.42
2022-12-11T02:47:18.798Z,48.70
2022-12-11T02:49:45.154Z,48.52
2022-12-11T02:52:11.546Z,47.69
2022-12-11T02:54:37.904Z,46.60
2022-12-11T02:57:04.237Z,46.44
2022-12-11T02:59:30.570Z,47.06
2022-12-11T03:01:56.927Z,47.54
2022-12-11T03:04:26.278Z,46.90
2022-12-11T03:06:53.751Z,46.16
2022-12-11T03:09:20.088Z,45.50
2022-12-11T03:11:46.428Z,45.68
2022-12-11T03:14:12.772Z,46.37
2022-12-11T03:16:39.140Z,45.20
2022-12-11T03:19:05.552Z,45.37
2022-12-11T03:21:31.955Z,45.19
2022-12-11T03:23:58.337Z,44.92
2022-12-11T03:26:24.722Z,45.84
2022-12-11T03:28:51.078Z,45.70
2022-12-11T03:31:17.508Z,45.74
2022-12-11T03:33:43.936Z,45.38
2022-12-11T03:36:10.345Z,45.04
2022-12-11T03:38:36.736Z,45.20
2022-12-11T03:41:03.082Z,45.56
2022-12-11T03:43:29.465Z,45.29
2022-12-11T03:45:55.885Z,45.04
2022-12-11T03:48:22.269Z,46.02
2022-12-11T03:50:48.670Z,45.42
2022-12-11T03:53:15.064Z,45.67
2022-12-11T03:55:41.449Z,45.66
2022-12-11T03:58:07.841Z,46.48
2022-12-11T04:00:34.260Z,46.99
2022-12-11T04:03:00.611Z,46.51
2022-12-11T04:05:26.954Z,47.47
2022-12-11T04:07:53.368Z,47.01
2022-12-11T04:10:19.753Z,46.81
2022-12-11T04:12:46.152Z,47.28
2022-12-11T04:15:12.857Z,48.17
2022-12-11T04:17:39.437Z,48.67
2022-12-11T04:20:05.822Z,49.16
2022-12-11T04:22:32.197Z,48.96
2022-12-11T04:24:58.552Z,48.79
2022-12-11T04:27:24.888Z,48.25
2022-12-11T04:29:51.271Z,48.73
2022-12-11T04:32:17.646Z,48.60
2022-12-11T04:34:43.999Z,48.35
2022-12-11T04:37:10.352Z,48.98
2022-12-11T04:39:36.694Z,49.21
2022-12-11T04:42:03.049Z,49.15
2022-12-11T04:44:29.391Z,48.96
2022-12-11T04:46:55.743Z,49.34
2022-12-11T04:49:22.078Z,48.36
2022-12-11T04:51:48.462Z,47.83
2022-12-11T04:54:14.806Z,46.42
2022-12-11T04:56:41.194Z,46.38
2022-12-11T04:59:07.576Z,45.89
2022-12-11T05:01:34.022Z,45.84
2022-12-11T05:04:00.449Z,45.09
2022-12-11T05:06:26.832Z,44.68
2022-12-11T05:08:53.175Z,44.94
2022-12-11T05:11:19.563Z,44.94
2022-12-11T05:13:45.918Z,45.05
2022-12-11T05:16:12.659Z,44.68
2022-12-11T05:18:39.145Z,45.10
2022-12-11T05:21:05.537Z,45.07
2022-12-11T05:23:31.907Z,45.26
2022-12-11T05:25:58.260Z,45.43
2022-12-11T05:28:24.608Z,44.53
2022-12-11T05:30:50.959Z,44.92
2022-12-11T05:33:17.336Z,44.91
2022-12-11T05:35:43.733Z,44.64
2022-12-11T05:38:10.085Z,45.19
2022-12-11T05:40:36.476Z,45.54
2022-12-11T05:43:02.874Z,46.10
2022-12-11T05:45:29.257Z,45.39
2022-12-11T05:47:55.649Z,46.16
2022-12-11T05:50:21.996Z,46.81
2022-12-11T05:52:48.336Z,47.51
2022-12-11T05:55:14.681Z,47.55
2022-12-11T05:57:41.014Z,47.58
2022-12-11T06:00:07.407Z,48.45
2022-12-11T06:02:33.881Z,50.02
2022-12-11T06:05:00.363Z,50.24
2022-12-11T06:07:26.739Z,49.94
2022-12-11T06:09:53.130Z,49.79
2022-12-11T06:12:19.618Z,51.30
2022-12-11T06:14:46.018Z,51.76
2022-12-11T06:17:12.376Z,51.50
2022-12-11T06:19:38.728Z,51.99
2022-12-11T06:22:05.078Z,52.69
2022-12-11T06:24:31.418Z,52.60
2022-12-11T06:26:57.756Z,52.11
2022-12-11T06:29:24.095Z,50.74
2022-12-11T06:31:50.539Z,51.31
2022-12-11T06:34:16.963Z,52.21
2022-12-11T06:36:43.353Z,51.95
2022-12-11T06:39:09.705Z,52.48
2022-12-11T06:41:36.081Z,52.55
2022-12-11T06:44:02.471Z,53.04
2022-12-11T06:46:28.876Z,52.29
2022-12-11T06:48:55.285Z,53.42
2022-12-11T06:51:21.669Z,53.32
2022-12-11T06:53:48.012Z,52.97
2022-12-11T06:56:14.414Z,52.64
2022-12-11T06:58:40.806Z,52.05
2022-12-11T07:01:07.173Z,52.18
2022-12-11T07:03:33.567Z,52.22
2022-12-11T07:05:59.958Z,52.73
2022-12-11T07:08:26.359Z,54.02
2022-12-11T07:10:52.780Z,53.69
2022-12-11T07:13:19.165Z,53.35
2022-12-11T07:15:45.506Z,53.82
2022-12-11T07:18:11.885Z,53.99
2022-12-11T07:20:38.232Z,53.64
2022-12-11T07:23:04.598Z,53.78
2022-12-11T07:25:30.988Z,53.68
2022-12-11T07:27:57.338Z,54.02
2022-12-11T07:30:23.680Z,53.18
2022-12-11T07:32:50.146Z,53.61
2022-12-11T07:35:16.534Z,52.71
2022-12-11T07:37:42.914Z,52.18
2022-12-11T07:40:09.299Z,51.82
2022-12-11T07:42:35.688Z,50.68
2022-12-11T07:45:02.093Z,50.29
2022-12-11T07:47:28.494Z,50.89
2022-12-11T07:49:54.833Z,51.71
2022-12-11T07:52:21.224Z,51.55
2022-12-11T07:54:47.563Z,49.79
2022-12-11T07:57:14.500Z,49.14
2022-12-11T07:59:40.915Z,49.09
2022-12-11T08:02:07.360Z,48.36
2022-12-11T08:04:33.777Z,47.57
2022-12-11T08:07:00.170Z,48.38
2022-12-11T08:09:26.550Z,47.81
2022-12-11T08:11:52.933Z,47.69
2022-12-11T08:14:19.274Z,47.00
2022-12-11T08:16:45.649Z,46.33
2022-12-11T08:19:12.022Z,47.03
2022-12-11T08:21:38.393Z,46.67
2022-12-11T08:24:04.774Z,46.93
2022-12-11T08:26:31.161Z,46.58
2022-12-11T08:28:57.505Z,48.04
2022-12-11T08:31:23.892Z,48.35
2022-12-11T08:33:50.273Z,47.25
2022-12-11T08:36:16.638Z,47.59
2022-12-11T08:38:42.973Z,46.84
2022-12-11T08:41:09.348Z,45.98
2022-12-11T08:43:35.724Z,45.33
2022-12-11T08:46:02.261Z,45.55
2022-12-11T08:48:28.713Z,45.97
2022-12-11T08:50:55.053Z,46.37
2022-12-11T08:53:21.383Z,45.54
2022-12-11T08:55:47.715Z,45.75
2022-12-11T08:58:14.056Z,45.31
2022-12-11T09:00:40.443Z,47.08
2022-12-11T09:03:12.529Z,46.08
2022-12-11T09:05:39.213Z,45.84
2022-12-11T09:08:05.606Z,45.88
2022-12-11T09:10:32.053Z,45.78
2022-12-11T09:12:58.436Z,45.58
2022-12-11T09:15:24.767Z,46.18
2022-12-11T09:17:51.142Z,46.42
2022-12-11T09:20:17.515Z,46.33
2022-12-11T09:22:43.902Z,46.96
2022-12-11T09:25:10.578Z,45.45
2022-12-11T09:27:37.191Z,44.50
2022-12-11T09:30:03.585Z,44.72
2022-12-11T09:32:29.950Z,44.41
2022-12-11T09:34:56.324Z,44.60
2022-12-11T09:37:22.709Z,45.16
2022-12-11T09:39:49.048Z,44.90
2022-12-11T09:42:15.427Z,44.64
2022-12-11T09:44:41.839Z,44.15
2022-12-11T09:47:08.252Z,43.99
2022-12-11T09:49:34.652Z,43.36
2022-12-11T09:52:00.995Z,44.95
2022-12-11T09:54:27.330Z,44.21
2022-12-11T09:56:53.681Z,43.77
2022-12-11T09:59:20.020Z,44.64
2022-12-11T10:01:46.447Z,44.39
2022-12-11T10:04:12.843Z,45.01
2022-12-11T10:06:39.196Z,44.91
2022-12-11T10:09:05.550Z,44.33
2022-12-11T10:11:31.916Z,44.66
2022-12-11T10:13:58.253Z,45.43
2022-12-11T10:16:24.590Z,44.64
2022-12-11T10:18:50.915Z,44.99
2022-12-11T10:21:17.333Z,45.01
2022-12-11T10:23:43.709Z,45.33
2022-12-11T10:26:10.049Z,45.26
2022-12-11T10:28:36.446Z,44.86
2022-12-11T10:31:02.846Z,45.74
2022-12-11T10:33:29.217Z,43.99
2022-12-11T10:35:55.552Z,44.32
2022-12-11T10:38:21.939Z,44.14
2022-12-11T10:40:48.285Z,42.95
2022-12-11T10:43:14.675Z,43.22
2022-12-11T10:45:41.020Z,42.66
2022-12-11T10:48:07.389Z,42.15
2022-12-11T10:50:33.794Z,44.01
2022-12-11T10:53:00.148Z,44.04
2022-12-11T10:55:26.493Z,42.97
2022-12-11T10:57:52.844Z,42.64
2022-12-11T11:00:19.212Z,42.46
2022-12-11T11:02:45.615Z,42.73
2022-12-11T11:05:12.623Z,42.16
2022-12-11T11:07:39.240Z,42.81
2022-12-11T11:10:05.626Z,43.74
2022-12-11T11:12:31.974Z,43.64
2022-12-11T11:14:58.378Z,43.08
2022-12-11T11:17:24.761Z,42.37
2022-12-11T11:19:51.150Z,42.64
2022-12-11T11:22:17.537Z,42.30
2022-12-11T11:24:43.924Z,42.59
2022-12-11T11:27:14.037Z,43.00
2022-12-11T11:29:40.522Z,42.95
2022-12-11T11:32:06.900Z,43.99
2022-12-11T11:34:33.260Z,43.42
2022-12-11T11:36:59.640Z,42.88
2022-12-11T11:39:25.991Z,42.80
2022-12-11T11:41:52.589Z,42.16
2022-12-11T11:44:18.940Z,43.38
2022-12-11T11:46:45.333Z,43.06
2022-12-11T11:49:11.695Z,42.30
2022-12-11T11:51:38.035Z,42.33
2022-12-11T11:54:04.382Z,41.76
2022-12-11T11:56:30.734Z,43.16
2022-12-11T11:58:57.102Z,42.01
2022-12-11T12:01:23.489Z,41.32
2022-12-11T12:03:49.872Z,41.94
2022-12-11T12:06:16.263Z,42.18
2022-12-11T12:08:42.616Z,40.93
2022-12-11T12:11:08.998Z,41.49
2022-12-11T12:13:50.833Z,41.10
2022-12-11T12:16:50.477Z,41.05
2022-12-11T12:19:03.562Z,42.21
2022-12-11T12:21:29.946Z,42.16
2022-12-11T12:23:56.334Z,43.56
2022-12-11T12:26:22.773Z,43.34
2022-12-11T12:28:49.159Z,43.95
2022-12-11T12:31:15.545Z,42.86
2022-12-11T12:33:41.901Z,41.94
2022-12-11T12:36:08.273Z,41.71
2022-12-11T12:38:34.658Z,41.98
2022-12-11T12:41:01.038Z,41.81
2022-12-11T12:43:27.436Z,42.08
2022-12-11T12:45:53.870Z,41.02
2022-12-11T12:48:20.251Z,40.13
2022-12-11T12:50:46.659Z,41.13
2022-12-11T12:53:13.056Z,40.95
2022-12-11T12:55:39.410Z,40.32
2022-12-11T12:58:05.744Z,39.50
2022-12-11T13:00:32.114Z,39.58
2022-12-11T13:02:58.464Z,39.23
2022-12-11T13:05:24.847Z,40.65
2022-12-11T13:07:54.448Z,39.74
2022-12-11T13:10:21.085Z,39.10
2022-12-11T13:12:47.825Z,39.87
2022-12-11T13:15:14.166Z,39.53
2022-12-11T13:17:40.500Z,38.46
2022-12-11T13:20:06.843Z,37.83
2022-12-11T13:22:33.177Z,37.98
2022-12-11T13:24:59.568Z,38.70
2022-12-11T13:27:25.898Z,37.75
2022-12-11T13:29:52.289Z,38.15
2022-12-11T13:32:18.680Z,37.44
2022-12-11T13:34:45.061Z,37.74
2022-12-11T13:37:11.462Z,38.69
2022-12-11T13:39:37.847Z,38.85
2022-12-11T13:42:04.236Z,38.16
2022-12-11T13:44:30.582Z,38.58
2022-12-11T13:46:56.951Z,38.71
2022-12-11T13:49:23.350Z,39.28
2022-12-11T13:51:49.718Z,39.31
2022-12-11T13:54:17.218Z,39.25
2022-12-11T13:56:43.906Z,39.80
2022-12-11T13:59:10.273Z,39.89
2022-12-11T14:01:36.617Z,39.31
2022-12-11T14:04:03.001Z,39.83
2022-12-11T14:06:29.372Z,40.17
2022-12-11T14:08:55.764Z,40.82
2022-12-11T14:11:22.136Z,40.90
2022-12-11T14:13:48.508Z,41.78
2022-12-11T14:16:16.814Z,41.10
2022-12-11T14:18:43.288Z,40.70
2022-12-11T14:21:09.635Z,41.55
2022-12-11T14:23:36.017Z,40.86
2022-12-11T14:26:02.388Z,40.46
2022-12-11T14:28:28.770Z,40.12
2022-12-11T14:30:55.166Z,40.08
2022-12-11T14:33:21.549Z,39.76
2022-12-11T14:35:47.887Z,39.75
2022-12-11T14:38:14.244Z,39.75
2022-12-11T14:40:40.590Z,39.73
2022-12-11T14:43:06.939Z,39.38
2022-12-11T14:45:33.359Z,39.92
2022-12-11T14:47:59.801Z,40.59
2022-12-11T14:50:26.143Z,40.71
2022-12-11T14:52:52.479Z,42.36
2022-12-11T14:55:18.839Z,41.22
2022-12-11T14:57:45.202Z,41.53
2022-12-11T15:00:11.801Z,40.69
2022-12-11T15:02:38.436Z,41.01
2022-12-11T15:05:04.822Z,41.39
2022-12-11T15:07:31.173Z,42.01
2022-12-11T15:09:57.570Z,41.55
2022-12-11T15:12:23.963Z,40.78
2022-12-11T15:14:50.364Z,41.05
2022-12-11T15:17:16.791Z,41.73
2022-12-11T15:19:43.199Z,42.02
2022-12-11T15:22:09.574Z,42.29
2022-12-11T15:24:35.947Z,42.11
2022-12-11T15:27:02.303Z,42.46
2022-12-11T15:29:28.657Z,42.57
2022-12-11T15:31:55.027Z,42.52
2022-12-11T15:34:21.375Z,42.60
2022-12-11T15:36:47.799Z,42.36
2022-12-11T15:39:14.172Z,41.21
2022-12-11T15:41:40.566Z,40.75
2022-12-11T15:44:06.917Z,40.85
2022-12-11T15:46:33.328Z,41.38
2022-12-11T15:48:59.703Z,40.80
2022-12-11T15:51:26.046Z,41.16
2022-12-11T15:53:52.381Z,42.47
2022-12-11T15:56:18.757Z,41.32
2022-12-11T15:58:45.150Z,41.52
2022-12-11T16:01:11.589Z,41.54
2022-12-11T16:03:38.000Z,41.40
2022-12-11T16:06:04.427Z,41.99
2022-12-11T16:08:30.887Z,42.35
2022-12-11T16:10:57.280Z,43.69
2022-12-11T16:13:23.625Z,43.18
2022-12-11T16:15:50.030Z,43.54
2022-12-11T16:18:16.477Z,42.76
2022-12-11T16:20:42.868Z,42.20
2022-12-11T16:23:09.239Z,42.82
2022-12-11T16:25:35.607Z,42.72
2022-12-11T16:28:01.992Z,42.14
2022-12-11T16:30:28.375Z,41.95
2022-12-11T16:32:54.770Z,42.26
2022-12-11T16:35:21.122Z,41.68
2022-12-11T16:37:47.459Z,42.22
2022-12-11T16:40:13.873Z,42.96
2022-12-11T16:42:40.223Z,43.16
2022-12-11T16:45:06.565Z,42.30
2022-12-11T16:47:32.982Z,42.97
2022-12-11T16:49:59.370Z,43.06
2022-12-11T16:52:25.723Z,42.74
2022-12-11T16:54:52.114Z,42.68
2022-12-11T16:57:18.469Z,42.79
2022-12-11T16:59:44.825Z,44.24
2022-12-11T17:02:11.164Z,43.95
2022-12-11T17:04:37.552Z,42.89
2022-12-11T17:07:03.910Z,43.12
2022-12-11T17:09:30.286Z,43.65
2022-12-11T17:11:56.672Z,45.71
2022-12-11T17:14:23.054Z,44.92
2022-12-11T17:16:49.402Z,43.80
2022-12-11T17:19:15.749Z,43.69
2022-12-11T17:21:44.798Z,43.10
2022-12-11T17:24:14.829Z,43.46
2022-12-11T17:26:41.187Z,43.34
2022-12-11T17:29:07.657Z,43.09
2022-12-11T17:31:34.164Z,43.49
2022-12-11T17:34:00.611Z,43.87
2022-12-11T17:36:27.004Z,43.66
2022-12-11T17:38:53.405Z,44.04
2022-12-11T17:41:21.032Z,44.90
2022-12-11T17:43:47.590Z,45.43
2022-12-11T17:46:13.975Z,46.15
2022-12-11T17:48:40.365Z,46.96
2022-12-11T17:51:06.696Z,46.56
2022-12-11T17:53:33.057Z,46.36
2022-12-11T17:55:59.474Z,46.75
2022-12-11T17:58:25.856Z,47.16
2022-12-11T18:00:52.233Z,46.76
2022-12-11T18:03:18.633Z,47.22
2022-12-11T18:05:45.034Z,46.88
2022-12-11T18:08:11.485Z,46.64
2022-12-11T18:10:37.846Z,46.70
2022-12-11T18:13:04.190Z,47.39
2022-12-11T18:15:30.577Z,46.83
2022-12-11T18:17:56.932Z,47.62
2022-12-11T18:20:23.288Z,47.96
2022-12-11T18:22:49.675Z,47.54
2022-12-11T18:25:16.453Z,48.04
2022-12-11T18:27:43.109Z,48.77
2022-12-11T18:30:09.467Z,48.78
2022-12-11T18:32:35.818Z,48.26
2022-12-11T18:35:02.201Z,48.98
2022-12-11T18:37:28.577Z,49.71
2022-12-11T18:39:54.926Z,50.45
2022-12-11T18:42:32.874Z,49.74
2022-12-11T18:44:59.630Z,50.42
2022-12-11T18:47:26.011Z,50.56
2022-12-11T18:49:52.557Z,50.89
2022-12-11T18:52:18.984Z,51.69
2022-12-11T18:54:45.364Z,50.39
2022-12-11T18:57:11.712Z,50.97
2022-12-11T18:59:38.050Z,50.87
2022-12-11T19:02:04.462Z,51.66
2022-12-11T19:04:30.861Z,50.93
2022-12-11T19:06:57.254Z,49.77
2022-12-11T19:09:23.636Z,49.52
2022-12-11T19:11:49.981Z,49.16
2022-12-11T19:14:16.320Z,48.95
2022-12-11T19:16:42.663Z,49.00
2022-12-11T19:19:09.007Z,47.96
2022-12-11T19:21:35.410Z,48.83
2022-12-11T19:24:01.833Z,49.05
2022-12-11T19:26:28.223Z,49.91
2022-12-11T19:28:54.619Z,49.61
2022-12-11T19:31:20.985Z,49.77
2022-12-11T19:33:47.565Z,51.12
2022-12-11T19:36:13.899Z,51.27
2022-12-11T19:38:40.240Z,51.19
2022-12-11T19:41:06.707Z,50.49
2022-12-11T19:43:33.142Z,50.73
2022-12-11T19:45:59.483Z,51.12
2022-12-11T19:48:25.891Z,50.25
2022-12-11T19:50:52.246Z,49.90
2022-12-11T19:53:18.588Z,50.35
2022-12-11T19:55:44.968Z,50.18
2022-12-11T19:58:11.319Z,48.94
2022-12-11T20:00:37.708Z,49.48
2022-12-11T20:03:04.121Z,49.42
2022-12-11T20:05:30.470Z,49.06
2022-12-11T20:08:02.102Z,48.52
2022-12-11T20:10:40.861Z,48.22
2022-12-11T20:13:07.248Z,48.73
2022-12-11T20:15:33.741Z,48.92
2022-12-11T20:18:00.234Z,49.60
2022-12-11T20:20:26.635Z,49.11
2022-12-11T20:22:53.030Z,49.21
2022-12-11T20:25:19.424Z,49.23
2022-12-11T20:27:45.871Z,49.27
2022-12-11T20:30:12.234Z,50.30
2022-12-11T20:32:38.567Z,49.94
2022-12-11T20:35:04.989Z,49.71
2022-12-11T20:37:31.339Z,49.83
2022-12-11T20:39:57.709Z,49.33
2022-12-11T20:42:24.095Z,50.14
2022-12-11T20:44:50.475Z,50.88
2022-12-11T20:47:16.814Z,51.14
2022-12-11T20:49:43.206Z,51.38
2022-12-11T20:52:09.588Z,52.01
2022-12-11T20:54:35.944Z,52.20
2022-12-11T20:57:02.337Z,52.28
2022-12-11T20:59:28.878Z,52.98
2022-12-11T21:01:55.260Z,53.03
2022-12-11T21:04:21.652Z,53.48
2022-12-11T21:06:48.046Z,53.00
2022-12-11T21:09:14.400Z,53.41
2022-12-11T21:11:40.817Z,53.47
2022-12-11T21:14:07.165Z,53.61
2022-12-11T21:16:33.551Z,54.00
2022-12-11T21:18:59.957Z,54.03
2022-12-11T21:21:26.309Z,55.04
2022-12-11T21:23:52.647Z,55.11
2022-12-11T21:26:19.012Z,55.00
2022-12-11T21:28:45.406Z,55.30
2022-12-11T21:31:11.836Z,55.30
2022-12-11T21:33:38.219Z,55.25
2022-12-11T21:36:04.557Z,54.95
2022-12-11T21:38:30.900Z,54.81
2022-12-11T21:40:57.231Z,54.89
2022-12-11T21:43:23.616Z,54.83
2022-12-11T21:46:01.056Z,54.78
2022-12-11T21:48:28.021Z,54.23
2022-12-11T21:50:54.415Z,53.06
2022-12-11T21:53:20.810Z,53.17
2022-12-11T21:55:47.230Z,53.38
2022-12-11T21:58:13.584Z,53.71
2022-12-11T22:00:39.971Z,53.42
2022-12-11T22:03:06.331Z,53.07
2022-12-11T22:05:32.675Z,52.39
2022-12-11T22:07:59.138Z,53.63
2022-12-11T22:10:25.553Z,52.62
2022-12-11T22:12:51.964Z,52.02
2022-12-11T22:15:18.367Z,51.55
2022-12-11T22:17:44.748Z,52.76
2022-12-11T22:20:11.096Z,52.50
2022-12-11T22:22:37.427Z,52.05
2022-12-11T22:25:03.774Z,52.26
2022-12-11T22:27:30.181Z,52.16
2022-12-11T22:29:56.581Z,51.39
2022-12-11T22:32:22.928Z,50.41
2022-12-11T22:34:49.269Z,50.22
2022-12-11T22:37:15.632Z,50.45
2022-12-11T22:39:42.012Z,51.54
2022-12-11T22:42:08.412Z,50.97
2022-12-11T22:44:34.795Z,51.42
2022-12-11T22:47:01.186Z,51.73
2022-12-11T22:49:27.549Z,51.83
2022-12-11T22:51:53.878Z,51.24
2022-12-11T22:54:20.300Z,52.34
2022-12-11T22:56:46.665Z,51.90
2022-12-11T22:59:13.046Z,52.87
2022-12-11T23:01:39.394Z,52.29
2022-12-11T23:04:05.754Z,52.32
2022-12-11T23:06:32.129Z,51.99
2022-12-11T23:08:58.614Z,52.07
2022-12-11T23:11:25.071Z,51.41
2022-12-11T23:13:51.434Z,51.69
2022-12-11T23:16:17.829Z,50.70
2022-12-11T23:18:44.231Z,51.41
2022-12-11T23:21:10.566Z,51.20
2022-12-11T23:23:36.905Z,51.38
2022-12-11T23:26:03.241Z,50.35
2022-12-11T23:28:29.584Z,50.62
2022-12-11T23:30:56.015Z,49.81
2022-12-11T23:33:22.446Z,50.47
2022-12-11T23:35:48.849Z,50.39
2022-12-11T23:38:15.187Z,50.49
2022-12-11T23:40:41.536Z,50.31
2022-12-11T23:43:07.920Z,51.17
2022-12-11T23:45:34.263Z,50.81
2022-12-11T23:48:00.638Z,51.67
2022-12-11T23:50:27.024Z,51.59
2022-12-11T23:52:53.385Z,52.31
2022-12-11T23:55:19.770Z,52.05
2022-12-11T23:57:46.117Z,51.79
